sensor_id;sensor_type;location;lat;lon;timestamp;P1;durP1;ratioP1;P2;durP2;ratioP2
16963;SDS011;8598;50.508;10.436;2023-04-15T00:00:19;5.37;;;4.83;;
16963;SDS011;8598;50.508;10.436;2023-04-15T00:02:45;9.83;;;5.70;;
16963;SDS011;8598;50.508;10.436;2023-04-15T00:05:12;6.77;;;5.60;;
16963;SDS011;8598;50.508;10.436;2023-04-15T00:07:40;9.17;;;6.03;;
16963;SDS011;8598;50.508;10.436;2023-04-15T00:10:07;8.47;;;6.10;;
16963;SDS011;8598;50.508;10.436;2023-04-15T00:12:34;7.20;;;6.03;;
16963;SDS011;8598;50.508;10.436;2023-04-15T00:15:01;6.73;;;5.80;;
16963;SDS011;8598;50.508;10.436;2023-04-15T00:17:28;11.27;;;7.67;;
16963;SDS011;8598;50.508;10.436;2023-04-15T00:19:55;6.17;;;5.47;;
16963;SDS011;8598;50.508;10.436;2023-04-15T00:22:23;7.60;;;5.87;;
16963;SDS011;8598;50.508;10.436;2023-04-15T00:24:52;7.30;;;5.73;;
16963;SDS011;8598;50.508;10.436;2023-04-15T00:27:19;6.90;;;5.87;;
16963;SDS011;8598;50.508;10.436;2023-04-15T00:29:45;7.00;;;5.47;;
16963;SDS011;8598;50.508;10.436;2023-04-15T00:32:12;7.53;;;6.17;;
16963;SDS011;8598;50.508;10.436;2023-04-15T00:34:39;7.63;;;6.27;;
16963;SDS011;8598;50.508;10.436;2023-04-15T00:37:06;11.30;;;6.93;;
16963;SDS011;8598;50.508;10.436;2023-04-15T00:39:32;8.63;;;6.67;;
16963;SDS011;8598;50.508;10.436;2023-04-15T00:42:00;9.70;;;6.47;;
16963;SDS011;8598;50.508;10.436;2023-04-15T00:44:27;12.00;;;7.80;;
16963;SDS011;8598;50.508;10.436;2023-04-15T00:46:54;13.77;;;7.57;;
16963;SDS011;8598;50.508;10.436;2023-04-15T00:49:21;8.70;;;7.10;;
16963;SDS011;8598;50.508;10.436;2023-04-15T00:51:48;9.63;;;7.57;;
16963;SDS011;8598;50.508;10.436;2023-04-15T00:54:15;10.23;;;7.57;;
16963;SDS011;8598;50.508;10.436;2023-04-15T00:56:42;11.70;;;7.60;;
16963;SDS011;8598;50.508;10.436;2023-04-15T00:59:10;11.83;;;7.70;;
16963;SDS011;8598;50.508;10.436;2023-04-15T01:01:37;11.70;;;8.00;;
16963;SDS011;8598;50.508;10.436;2023-04-15T01:04:04;11.30;;;8.07;;
16963;SDS011;8598;50.508;10.436;2023-04-15T01:06:30;11.33;;;7.97;;
16963;SDS011;8598;50.508;10.436;2023-04-15T01:08:57;10.30;;;7.23;;
16963;SDS011;8598;50.508;10.436;2023-04-15T01:11:25;11.17;;;7.67;;
16963;SDS011;8598;50.508;10.436;2023-04-15T01:13:53;10.67;;;8.00;;
16963;SDS011;8598;50.508;10.436;2023-04-15T01:16:22;10.57;;;7.63;;
16963;SDS011;8598;50.508;10.436;2023-04-15T01:18:49;10.83;;;8.17;;
16963;SDS011;8598;50.508;10.436;2023-04-15T01:21:16;8.83;;;7.10;;
16963;SDS011;8598;50.508;10.436;2023-04-15T01:23:44;11.70;;;7.93;;
16963;SDS011;8598;50.508;10.436;2023-04-15T01:26:14;10.43;;;7.70;;
16963;SDS011;8598;50.508;10.436;2023-04-15T01:28:41;9.77;;;7.23;;
16963;SDS011;8598;50.508;10.436;2023-04-15T01:31:08;9.60;;;6.90;;
16963;SDS011;8598;50.508;10.436;2023-04-15T01:33:36;10.73;;;7.07;;
16963;SDS011;8598;50.508;10.436;2023-04-15T01:36:04;10.03;;;7.33;;
16963;SDS011;8598;50.508;10.436;2023-04-15T01:38:32;8.97;;;6.80;;
16963;SDS011;8598;50.508;10.436;2023-04-15T01:40:59;7.60;;;6.80;;
16963;SDS011;8598;50.508;10.436;2023-04-15T01:43:28;9.57;;;7.47;;
16963;SDS011;8598;50.508;10.436;2023-04-15T01:45:54;9.37;;;7.83;;
16963;SDS011;8598;50.508;10.436;2023-04-15T01:48:21;12.00;;;7.73;;
16963;SDS011;8598;50.508;10.436;2023-04-15T01:50:48;8.97;;;7.00;;
16963;SDS011;8598;50.508;10.436;2023-04-15T01:53:15;11.13;;;7.30;;
16963;SDS011;8598;50.508;10.436;2023-04-15T01:55:42;9.83;;;7.57;;
16963;SDS011;8598;50.508;10.436;2023-04-15T01:58:09;11.63;;;7.53;;
16963;SDS011;8598;50.508;10.436;2023-04-15T02:00:37;10.67;;;7.27;;
16963;SDS011;8598;50.508;10.436;2023-04-15T02:03:04;9.03;;;7.40;;
16963;SDS011;8598;50.508;10.436;2023-04-15T02:05:31;12.27;;;7.03;;
16963;SDS011;8598;50.508;10.436;2023-04-15T02:07:57;8.67;;;7.13;;
16963;SDS011;8598;50.508;10.436;2023-04-15T02:10:24;11.63;;;7.57;;
16963;SDS011;8598;50.508;10.436;2023-04-15T02:12:51;9.60;;;6.93;;
16963;SDS011;8598;50.508;10.436;2023-04-15T02:15:18;9.60;;;7.43;;
16963;SDS011;8598;50.508;10.436;2023-04-15T02:17:46;10.00;;;7.33;;
16963;SDS011;8598;50.508;10.436;2023-04-15T02:20:15;12.23;;;7.40;;
16963;SDS011;8598;50.508;10.436;2023-04-15T02:22:41;10.70;;;7.30;;
16963;SDS011;8598;50.508;10.436;2023-04-15T02:25:08;9.20;;;6.87;;
16963;SDS011;8598;50.508;10.436;2023-04-15T02:27:35;8.73;;;6.97;;
16963;SDS011;8598;50.508;10.436;2023-04-15T02:30:02;10.13;;;7.63;;
16963;SDS011;8598;50.508;10.436;2023-04-15T02:32:29;10.43;;;7.50;;
16963;SDS011;8598;50.508;10.436;2023-04-15T02:34:58;10.27;;;7.87;;
16963;SDS011;8598;50.508;10.436;2023-04-15T02:37:28;8.27;;;7.10;;
16963;SDS011;8598;50.508;10.436;2023-04-15T02:39:55;11.70;;;7.47;;
16963;SDS011;8598;50.508;10.436;2023-04-15T02:42:22;9.23;;;7.00;;
16963;SDS011;8598;50.508;10.436;2023-04-15T02:44:51;10.23;;;7.20;;
16963;SDS011;8598;50.508;10.436;2023-04-15T02:47:18;10.37;;;7.03;;
16963;SDS011;8598;50.508;10.436;2023-04-15T02:49:45;8.27;;;6.37;;
16963;SDS011;8598;50.508;10.436;2023-04-15T02:52:13;11.80;;;7.47;;
16963;SDS011;8598;50.508;10.436;2023-04-15T02:54:40;10.93;;;7.10;;
16963;SDS011;8598;50.508;10.436;2023-04-15T02:57:07;10.30;;;7.17;;
16963;SDS011;8598;50.508;10.436;2023-04-15T02:59:35;9.37;;;7.10;;
16963;SDS011;8598;50.508;10.436;2023-04-15T03:02:03;9.20;;;7.13;;
16963;SDS011;8598;50.508;10.436;2023-04-15T03:04:31;9.53;;;7.17;;
16963;SDS011;8598;50.508;10.436;2023-04-15T03:06:58;10.03;;;7.57;;
16963;SDS011;8598;50.508;10.436;2023-04-15T03:09:27;10.67;;;7.30;;
16963;SDS011;8598;50.508;10.436;2023-04-15T03:11:53;10.93;;;8.00;;
16963;SDS011;8598;50.508;10.436;2023-04-15T03:14:20;9.97;;;7.40;;
16963;SDS011;8598;50.508;10.436;2023-04-15T03:16:47;10.70;;;7.53;;
16963;SDS011;8598;50.508;10.436;2023-04-15T03:19:14;9.23;;;7.50;;
16963;SDS011;8598;50.508;10.436;2023-04-15T03:21:41;10.53;;;7.57;;
16963;SDS011;8598;50.508;10.436;2023-04-15T03:24:07;9.17;;;7.37;;
16963;SDS011;8598;50.508;10.436;2023-04-15T03:26:36;11.93;;;8.07;;
16963;SDS011;8598;50.508;10.436;2023-04-15T03:29:02;12.37;;;8.70;;
16963;SDS011;8598;50.508;10.436;2023-04-15T03:31:29;10.97;;;8.70;;
16963;SDS011;8598;50.508;10.436;2023-04-15T03:33:55;14.03;;;9.00;;
16963;SDS011;8598;50.508;10.436;2023-04-15T03:36:22;10.40;;;8.50;;
16963;SDS011;8598;50.508;10.436;2023-04-15T03:38:48;14.33;;;9.00;;
16963;SDS011;8598;50.508;10.436;2023-04-15T03:41:15;12.80;;;8.57;;
16963;SDS011;8598;50.508;10.436;2023-04-15T03:43:43;11.83;;;8.50;;
16963;SDS011;8598;50.508;10.436;2023-04-15T03:46:10;11.00;;;8.40;;
16963;SDS011;8598;50.508;10.436;2023-04-15T03:48:36;12.17;;;9.07;;
16963;SDS011;8598;50.508;10.436;2023-04-15T03:51:03;14.07;;;9.23;;
16963;SDS011;8598;50.508;10.436;2023-04-15T03:53:29;13.03;;;9.83;;
16963;SDS011;8598;50.508;10.436;2023-04-15T03:55:56;13.77;;;10.23;;
16963;SDS011;8598;50.508;10.436;2023-04-15T03:58:23;14.83;;;10.17;;
16963;SDS011;8598;50.508;10.436;2023-04-15T04:00:51;18.20;;;9.57;;
16963;SDS011;8598;50.508;10.436;2023-04-15T04:03:18;15.43;;;9.67;;
16963;SDS011;8598;50.508;10.436;2023-04-15T04:05:45;13.43;;;9.60;;
16963;SDS011;8598;50.508;10.436;2023-04-15T04:08:12;18.07;;;10.17;;
16963;SDS011;8598;50.508;10.436;2023-04-15T04:10:40;17.63;;;9.53;;
16963;SDS011;8598;50.508;10.436;2023-04-15T04:13:06;13.90;;;9.47;;
16963;SDS011;8598;50.508;10.436;2023-04-15T04:15:33;13.77;;;10.60;;
16963;SDS011;8598;50.508;10.436;2023-04-15T04:18:01;11.87;;;9.57;;
16963;SDS011;8598;50.508;10.436;2023-04-15T04:20:28;15.53;;;10.23;;
16963;SDS011;8598;50.508;10.436;2023-04-15T04:22:55;14.77;;;10.13;;
16963;SDS011;8598;50.508;10.436;2023-04-15T04:25:22;18.57;;;10.90;;
16963;SDS011;8598;50.508;10.436;2023-04-15T04:27:49;15.70;;;9.70;;
16963;SDS011;8598;50.508;10.436;2023-04-15T04:30:16;13.83;;;9.40;;
16963;SDS011;8598;50.508;10.436;2023-04-15T04:32:43;27.00;;;16.50;;
16963;SDS011;8598;50.508;10.436;2023-04-15T04:35:11;16.80;;;10.53;;
16963;SDS011;8598;50.508;10.436;2023-04-15T04:37:37;16.03;;;10.27;;
16963;SDS011;8598;50.508;10.436;2023-04-15T04:40:05;16.27;;;9.53;;
16963;SDS011;8598;50.508;10.436;2023-04-15T04:42:33;14.33;;;9.47;;
16963;SDS011;8598;50.508;10.436;2023-04-15T04:45:00;16.43;;;9.90;;
16963;SDS011;8598;50.508;10.436;2023-04-15T04:47:26;15.67;;;9.90;;
16963;SDS011;8598;50.508;10.436;2023-04-15T04:49:54;15.83;;;11.23;;
16963;SDS011;8598;50.508;10.436;2023-04-15T04:52:22;15.20;;;11.60;;
16963;SDS011;8598;50.508;10.436;2023-04-15T04:54:48;13.97;;;9.33;;
16963;SDS011;8598;50.508;10.436;2023-04-15T04:57:15;14.40;;;10.47;;
16963;SDS011;8598;50.508;10.436;2023-04-15T04:59:42;14.30;;;10.37;;
16963;SDS011;8598;50.508;10.436;2023-04-15T05:02:08;13.93;;;9.40;;
16963;SDS011;8598;50.508;10.436;2023-04-15T05:04:35;14.07;;;9.70;;
16963;SDS011;8598;50.508;10.436;2023-04-15T05:07:02;14.97;;;9.60;;
16963;SDS011;8598;50.508;10.436;2023-04-15T05:09:30;13.23;;;9.93;;
16963;SDS011;8598;50.508;10.436;2023-04-15T05:12:00;14.57;;;9.70;;
16963;SDS011;8598;50.508;10.436;2023-04-15T05:14:26;19.00;;;10.60;;
16963;SDS011;8598;50.508;10.436;2023-04-15T05:16:53;14.27;;;9.93;;
16963;SDS011;8598;50.508;10.436;2023-04-15T05:19:19;15.70;;;10.60;;
16963;SDS011;8598;50.508;10.436;2023-04-15T05:21:46;17.97;;;11.17;;
16963;SDS011;8598;50.508;10.436;2023-04-15T05:24:13;15.47;;;10.30;;
16963;SDS011;8598;50.508;10.436;2023-04-15T05:26:41;16.83;;;10.53;;
16963;SDS011;8598;50.508;10.436;2023-04-15T05:29:07;17.60;;;11.27;;
16963;SDS011;8598;50.508;10.436;2023-04-15T05:31:34;14.87;;;10.80;;
16963;SDS011;8598;50.508;10.436;2023-04-15T05:34:01;15.17;;;9.87;;
16963;SDS011;8598;50.508;10.436;2023-04-15T05:36:29;18.80;;;11.00;;
16963;SDS011;8598;50.508;10.436;2023-04-15T05:38:56;16.47;;;10.07;;
16963;SDS011;8598;50.508;10.436;2023-04-15T05:41:23;13.50;;;9.33;;
16963;SDS011;8598;50.508;10.436;2023-04-15T05:43:51;16.07;;;10.57;;
16963;SDS011;8598;50.508;10.436;2023-04-15T05:46:17;15.60;;;10.67;;
16963;SDS011;8598;50.508;10.436;2023-04-15T05:48:44;16.50;;;10.70;;
16963;SDS011;8598;50.508;10.436;2023-04-15T05:51:10;13.97;;;10.53;;
16963;SDS011;8598;50.508;10.436;2023-04-15T05:53:37;13.97;;;10.07;;
16963;SDS011;8598;50.508;10.436;2023-04-15T05:56:05;14.87;;;10.10;;
16963;SDS011;8598;50.508;10.436;2023-04-15T05:58:32;13.77;;;9.03;;
16963;SDS011;8598;50.508;10.436;2023-04-15T06:01:00;14.27;;;9.90;;
16963;SDS011;8598;50.508;10.436;2023-04-15T06:03:27;16.73;;;10.83;;
16963;SDS011;8598;50.508;10.436;2023-04-15T06:05:54;18.70;;;11.13;;
16963;SDS011;8598;50.508;10.436;2023-04-15T06:08:21;15.83;;;10.20;;
16963;SDS011;8598;50.508;10.436;2023-04-15T06:10:47;16.53;;;9.97;;
16963;SDS011;8598;50.508;10.436;2023-04-15T06:13:14;15.40;;;10.63;;
16963;SDS011;8598;50.508;10.436;2023-04-15T06:15:41;14.37;;;9.43;;
16963;SDS011;8598;50.508;10.436;2023-04-15T06:18:09;14.83;;;10.60;;
16963;SDS011;8598;50.508;10.436;2023-04-15T06:20:37;15.57;;;10.13;;
16963;SDS011;8598;50.508;10.436;2023-04-15T06:23:03;13.73;;;10.03;;
16963;SDS011;8598;50.508;10.436;2023-04-15T06:25:30;13.90;;;9.23;;
16963;SDS011;8598;50.508;10.436;2023-04-15T06:27:57;14.23;;;9.73;;
16963;SDS011;8598;50.508;10.436;2023-04-15T06:30:23;14.20;;;9.30;;
16963;SDS011;8598;50.508;10.436;2023-04-15T06:32:50;14.47;;;10.47;;
16963;SDS011;8598;50.508;10.436;2023-04-15T06:35:18;15.83;;;10.13;;
16963;SDS011;8598;50.508;10.436;2023-04-15T06:37:45;12.87;;;9.23;;
16963;SDS011;8598;50.508;10.436;2023-04-15T06:40:12;16.63;;;9.80;;
16963;SDS011;8598;50.508;10.436;2023-04-15T06:42:38;14.50;;;9.63;;
16963;SDS011;8598;50.508;10.436;2023-04-15T06:45:06;12.73;;;9.57;;
16963;SDS011;8598;50.508;10.436;2023-04-15T06:47:33;14.60;;;10.10;;
16963;SDS011;8598;50.508;10.436;2023-04-15T06:50:00;13.03;;;9.30;;
16963;SDS011;8598;50.508;10.436;2023-04-15T06:52:29;15.00;;;9.50;;
16963;SDS011;8598;50.508;10.436;2023-04-15T06:54:56;16.50;;;9.67;;
16963;SDS011;8598;50.508;10.436;2023-04-15T06:57:23;14.90;;;10.23;;
16963;SDS011;8598;50.508;10.436;2023-04-15T06:59:50;16.93;;;10.90;;
16963;SDS011;8598;50.508;10.436;2023-04-15T07:02:25;14.97;;;10.10;;
16963;SDS011;8598;50.508;10.436;2023-04-15T07:04:51;17.20;;;10.17;;
16963;SDS011;8598;50.508;10.436;2023-04-15T07:07:18;14.00;;;9.13;;
16963;SDS011;8598;50.508;10.436;2023-04-15T07:09:46;14.57;;;9.50;;
16963;SDS011;8598;50.508;10.436;2023-04-15T07:12:13;16.57;;;9.83;;
16963;SDS011;8598;50.508;10.436;2023-04-15T07:14:40;14.83;;;10.07;;
16963;SDS011;8598;50.508;10.436;2023-04-15T07:17:07;13.70;;;8.73;;
16963;SDS011;8598;50.508;10.436;2023-04-15T07:19:34;13.77;;;7.67;;
16963;SDS011;8598;50.508;10.436;2023-04-15T07:22:01;12.33;;;8.33;;
16963;SDS011;8598;50.508;10.436;2023-04-15T07:24:27;13.37;;;8.77;;
16963;SDS011;8598;50.508;10.436;2023-04-15T07:26:56;12.10;;;8.73;;
16963;SDS011;8598;50.508;10.436;2023-04-15T07:29:23;15.80;;;9.40;;
16963;SDS011;8598;50.508;10.436;2023-04-15T07:31:50;15.30;;;9.97;;
16963;SDS011;8598;50.508;10.436;2023-04-15T07:34:17;14.87;;;9.70;;
16963;SDS011;8598;50.508;10.436;2023-04-15T07:36:44;13.90;;;9.30;;
16963;SDS011;8598;50.508;10.436;2023-04-15T07:39:14;13.27;;;8.50;;
16963;SDS011;8598;50.508;10.436;2023-04-15T07:41:41;12.47;;;8.67;;
16963;SDS011;8598;50.508;10.436;2023-04-15T07:44:09;12.47;;;8.53;;
16963;SDS011;8598;50.508;10.436;2023-04-15T07:46:36;10.83;;;8.23;;
16963;SDS011;8598;50.508;10.436;2023-04-15T07:49:03;11.80;;;7.70;;
16963;SDS011;8598;50.508;10.436;2023-04-15T07:51:29;10.20;;;6.93;;
16963;SDS011;8598;50.508;10.436;2023-04-15T07:53:56;12.03;;;7.50;;
16963;SDS011;8598;50.508;10.436;2023-04-15T07:56:23;14.40;;;8.40;;
16963;SDS011;8598;50.508;10.436;2023-04-15T07:58:50;10.13;;;7.50;;
16963;SDS011;8598;50.508;10.436;2023-04-15T08:01:18;10.73;;;7.10;;
16963;SDS011;8598;50.508;10.436;2023-04-15T08:03:45;12.43;;;8.33;;
16963;SDS011;8598;50.508;10.436;2023-04-15T08:06:12;12.07;;;8.73;;
16963;SDS011;8598;50.508;10.436;2023-04-15T08:08:39;13.57;;;8.77;;
16963;SDS011;8598;50.508;10.436;2023-04-15T08:11:05;13.60;;;8.90;;
16963;SDS011;8598;50.508;10.436;2023-04-15T08:13:32;14.07;;;8.37;;
16963;SDS011;8598;50.508;10.436;2023-04-15T08:16:19;15.97;;;9.53;;
16963;SDS011;8598;50.508;10.436;2023-04-15T08:18:47;13.30;;;8.60;;
16963;SDS011;8598;50.508;10.436;2023-04-15T08:21:15;10.63;;;7.70;;
16963;SDS011;8598;50.508;10.436;2023-04-15T08:23:43;17.13;;;9.37;;
16963;SDS011;8598;50.508;10.436;2023-04-15T08:26:10;15.47;;;9.73;;
16963;SDS011;8598;50.508;10.436;2023-04-15T08:28:37;13.57;;;9.37;;
16963;SDS011;8598;50.508;10.436;2023-04-15T08:31:05;13.03;;;8.77;;
16963;SDS011;8598;50.508;10.436;2023-04-15T08:33:33;13.47;;;10.03;;
16963;SDS011;8598;50.508;10.436;2023-04-15T08:35:59;13.47;;;8.90;;
16963;SDS011;8598;50.508;10.436;2023-04-15T08:38:26;10.97;;;8.57;;
16963;SDS011;8598;50.508;10.436;2023-04-15T08:40:53;12.97;;;9.07;;
16963;SDS011;8598;50.508;10.436;2023-04-15T08:43:21;12.53;;;9.07;;
16963;SDS011;8598;50.508;10.436;2023-04-15T08:45:51;18.10;;;12.50;;
16963;SDS011;8598;50.508;10.436;2023-04-15T08:48:18;16.80;;;12.97;;
16963;SDS011;8598;50.508;10.436;2023-04-15T08:50:46;14.23;;;9.80;;
16963;SDS011;8598;50.508;10.436;2023-04-15T08:53:13;13.50;;;8.20;;
16963;SDS011;8598;50.508;10.436;2023-04-15T08:55:41;12.37;;;7.83;;
16963;SDS011;8598;50.508;10.436;2023-04-15T08:58:09;14.83;;;9.47;;
16963;SDS011;8598;50.508;10.436;2023-04-15T09:00:37;12.10;;;9.53;;
16963;SDS011;8598;50.508;10.436;2023-04-15T09:03:04;12.83;;;8.93;;
16963;SDS011;8598;50.508;10.436;2023-04-15T09:05:31;9.47;;;6.80;;
16963;SDS011;8598;50.508;10.436;2023-04-15T09:08:00;11.40;;;7.70;;
16963;SDS011;8598;50.508;10.436;2023-04-15T09:10:27;11.33;;;6.83;;
16963;SDS011;8598;50.508;10.436;2023-04-15T09:12:54;9.33;;;7.00;;
16963;SDS011;8598;50.508;10.436;2023-04-15T09:15:21;9.53;;;7.07;;
16963;SDS011;8598;50.508;10.436;2023-04-15T09:17:51;10.40;;;7.10;;
16963;SDS011;8598;50.508;10.436;2023-04-15T09:20:18;10.00;;;6.60;;
16963;SDS011;8598;50.508;10.436;2023-04-15T09:22:46;10.77;;;7.87;;
16963;SDS011;8598;50.508;10.436;2023-04-15T09:25:28;9.13;;;6.50;;
16963;SDS011;8598;50.508;10.436;2023-04-15T09:27:55;9.90;;;6.87;;
16963;SDS011;8598;50.508;10.436;2023-04-15T09:30:23;8.07;;;6.07;;
16963;SDS011;8598;50.508;10.436;2023-04-15T09:32:50;7.20;;;5.40;;
16963;SDS011;8598;50.508;10.436;2023-04-15T09:35:17;11.67;;;8.00;;
16963;SDS011;8598;50.508;10.436;2023-04-15T09:37:44;7.43;;;4.73;;
16963;SDS011;8598;50.508;10.436;2023-04-15T09:40:11;8.80;;;7.10;;
16963;SDS011;8598;50.508;10.436;2023-04-15T09:45:22;7.27;;;5.60;;
16963;SDS011;8598;50.508;10.436;2023-04-15T09:47:49;26.07;;;8.47;;
16963;SDS011;8598;50.508;10.436;2023-04-15T09:50:17;9.20;;;5.37;;
16963;SDS011;8598;50.508;10.436;2023-04-15T09:52:44;11.27;;;5.20;;
16963;SDS011;8598;50.508;10.436;2023-04-15T09:55:12;6.77;;;5.47;;
16963;SDS011;8598;50.508;10.436;2023-04-15T09:57:39;7.87;;;5.40;;
16963;SDS011;8598;50.508;10.436;2023-04-15T10:00:10;6.57;;;5.37;;
16963;SDS011;8598;50.508;10.436;2023-04-15T10:02:37;6.47;;;5.57;;
16963;SDS011;8598;50.508;10.436;2023-04-15T10:05:06;6.63;;;5.37;;
16963;SDS011;8598;50.508;10.436;2023-04-15T10:07:35;6.50;;;5.07;;
16963;SDS011;8598;50.508;10.436;2023-04-15T10:10:03;6.30;;;5.40;;
16963;SDS011;8598;50.508;10.436;2023-04-15T10:12:31;7.83;;;5.53;;
16963;SDS011;8598;50.508;10.436;2023-04-15T10:14:59;6.03;;;4.60;;
16963;SDS011;8598;50.508;10.436;2023-04-15T10:17:31;6.70;;;4.60;;
16963;SDS011;8598;50.508;10.436;2023-04-15T10:19:59;5.70;;;4.43;;
16963;SDS011;8598;50.508;10.436;2023-04-15T10:22:26;7.90;;;4.37;;
16963;SDS011;8598;50.508;10.436;2023-04-15T10:24:54;5.97;;;4.87;;
16963;SDS011;8598;50.508;10.436;2023-04-15T10:27:21;5.87;;;4.37;;
16963;SDS011;8598;50.508;10.436;2023-04-15T10:29:49;6.70;;;5.83;;
16963;SDS011;8598;50.508;10.436;2023-04-15T10:32:16;6.47;;;5.03;;
16963;SDS011;8598;50.508;10.436;2023-04-15T10:34:47;6.73;;;4.40;;
16963;SDS011;8598;50.508;10.436;2023-04-15T10:37:19;7.27;;;5.30;;
16963;SDS011;8598;50.508;10.436;2023-04-15T10:39:46;6.27;;;5.13;;
16963;SDS011;8598;50.508;10.436;2023-04-15T10:42:13;5.13;;;4.23;;
16963;SDS011;8598;50.508;10.436;2023-04-15T10:44:41;6.50;;;4.13;;
16963;SDS011;8598;50.508;10.436;2023-04-15T10:47:09;6.93;;;5.00;;
16963;SDS011;8598;50.508;10.436;2023-04-15T10:49:44;6.47;;;4.87;;
16963;SDS011;8598;50.508;10.436;2023-04-15T10:52:14;7.83;;;5.90;;
16963;SDS011;8598;50.508;10.436;2023-04-15T10:54:42;5.57;;;4.20;;
16963;SDS011;8598;50.508;10.436;2023-04-15T10:57:13;7.13;;;5.00;;
16963;SDS011;8598;50.508;10.436;2023-04-15T11:00:01;6.57;;;4.50;;
16963;SDS011;8598;50.508;10.436;2023-04-15T11:02:39;4.87;;;3.93;;
16963;SDS011;8598;50.508;10.436;2023-04-15T11:05:11;5.30;;;4.40;;
16963;SDS011;8598;50.508;10.436;2023-04-15T11:07:39;5.57;;;4.30;;
16963;SDS011;8598;50.508;10.436;2023-04-15T11:13:17;5.13;;;4.17;;
16963;SDS011;8598;50.508;10.436;2023-04-15T11:15:52;5.60;;;4.10;;
16963;SDS011;8598;50.508;10.436;2023-04-15T11:18:23;8.33;;;6.73;;
16963;SDS011;8598;50.508;10.436;2023-04-15T11:20:52;6.03;;;4.77;;
16963;SDS011;8598;50.508;10.436;2023-04-15T11:23:26;6.67;;;4.27;;
16963;SDS011;8598;50.508;10.436;2023-04-15T11:25:54;7.23;;;5.53;;
16963;SDS011;8598;50.508;10.436;2023-04-15T11:28:24;7.30;;;3.77;;
16963;SDS011;8598;50.508;10.436;2023-04-15T11:30:52;8.00;;;5.70;;
16963;SDS011;8598;50.508;10.436;2023-04-15T11:33:19;5.60;;;3.80;;
16963;SDS011;8598;50.508;10.436;2023-04-15T11:35:47;5.03;;;3.63;;
16963;SDS011;8598;50.508;10.436;2023-04-15T11:38:16;7.60;;;3.93;;
16963;SDS011;8598;50.508;10.436;2023-04-15T11:40:43;6.17;;;5.23;;
16963;SDS011;8598;50.508;10.436;2023-04-15T11:43:10;6.70;;;4.17;;
16963;SDS011;8598;50.508;10.436;2023-04-15T11:45:46;8.40;;;5.60;;
16963;SDS011;8598;50.508;10.436;2023-04-15T11:48:15;5.67;;;4.97;;
16963;SDS011;8598;50.508;10.436;2023-04-15T11:50:41;5.30;;;4.40;;
16963;SDS011;8598;50.508;10.436;2023-04-15T11:53:08;5.33;;;3.97;;
16963;SDS011;8598;50.508;10.436;2023-04-15T11:55:41;4.03;;;3.33;;
16963;SDS011;8598;50.508;10.436;2023-04-15T11:58:10;4.77;;;3.83;;
16963;SDS011;8598;50.508;10.436;2023-04-15T12:00:39;5.70;;;4.13;;
16963;SDS011;8598;50.508;10.436;2023-04-15T12:03:13;4.77;;;3.67;;
16963;SDS011;8598;50.508;10.436;2023-04-15T12:11:19;4.10;;;2.60;;
16963;SDS011;8598;50.508;10.436;2023-04-15T12:13:53;4.00;;;3.07;;
16963;SDS011;8598;50.508;10.436;2023-04-15T12:16:20;2.80;;;2.47;;
16963;SDS011;8598;50.508;10.436;2023-04-15T12:18:49;2.90;;;2.47;;
16963;SDS011;8598;50.508;10.436;2023-04-15T12:21:17;4.43;;;2.67;;
16963;SDS011;8598;50.508;10.436;2023-04-15T12:23:48;3.97;;;2.63;;
16963;SDS011;8598;50.508;10.436;2023-04-15T12:26:15;3.23;;;2.57;;
16963;SDS011;8598;50.508;10.436;2023-04-15T12:28:43;2.50;;;2.30;;
16963;SDS011;8598;50.508;10.436;2023-04-15T12:31:10;2.40;;;2.20;;
16963;SDS011;8598;50.508;10.436;2023-04-15T12:33:38;2.07;;;1.83;;
16963;SDS011;8598;50.508;10.436;2023-04-15T12:36:05;2.17;;;1.90;;
16963;SDS011;8598;50.508;10.436;2023-04-15T12:38:32;2.30;;;2.00;;
16963;SDS011;8598;50.508;10.436;2023-04-15T12:40:58;1.83;;;1.70;;
16963;SDS011;8598;50.508;10.436;2023-04-15T12:43:25;1.60;;;1.50;;
16963;SDS011;8598;50.508;10.436;2023-04-15T12:45:53;1.83;;;1.67;;
16963;SDS011;8598;50.508;10.436;2023-04-15T12:48:20;1.80;;;1.70;;
16963;SDS011;8598;50.508;10.436;2023-04-15T12:50:47;1.57;;;1.30;;
16963;SDS011;8598;50.508;10.436;2023-04-15T12:53:13;1.50;;;1.40;;
16963;SDS011;8598;50.508;10.436;2023-04-15T12:55:40;3.20;;;1.50;;
16963;SDS011;8598;50.508;10.436;2023-04-15T12:58:07;1.40;;;1.30;;
16963;SDS011;8598;50.508;10.436;2023-04-15T13:00:35;1.80;;;1.60;;
16963;SDS011;8598;50.508;10.436;2023-04-15T13:03:03;1.53;;;1.43;;
16963;SDS011;8598;50.508;10.436;2023-04-15T13:05:30;2.10;;;1.40;;
16963;SDS011;8598;50.508;10.436;2023-04-15T13:07:57;1.60;;;1.50;;
16963;SDS011;8598;50.508;10.436;2023-04-15T13:10:23;1.77;;;1.20;;
16963;SDS011;8598;50.508;10.436;2023-04-15T13:12:50;1.67;;;1.50;;
16963;SDS011;8598;50.508;10.436;2023-04-15T13:15:17;1.33;;;1.23;;
16963;SDS011;8598;50.508;10.436;2023-04-15T13:17:45;1.40;;;1.30;;
16963;SDS011;8598;50.508;10.436;2023-04-15T13:20:13;1.50;;;1.40;;
16963;SDS011;8598;50.508;10.436;2023-04-15T13:22:41;2.13;;;2.03;;
16963;SDS011;8598;50.508;10.436;2023-04-15T13:25:08;1.40;;;1.30;;
16963;SDS011;8598;50.508;10.436;2023-04-15T13:27:35;1.40;;;1.30;;
16963;SDS011;8598;50.508;10.436;2023-04-15T13:30:02;1.37;;;1.27;;
16963;SDS011;8598;50.508;10.436;2023-04-15T13:32:29;1.53;;;1.40;;
16963;SDS011;8598;50.508;10.436;2023-04-15T13:34:56;1.70;;;1.60;;
16963;SDS011;8598;50.508;10.436;2023-04-15T13:37:26;1.77;;;1.20;;
16963;SDS011;8598;50.508;10.436;2023-04-15T13:39:53;2.67;;;0.90;;
16963;SDS011;8598;50.508;10.436;2023-04-15T13:42:20;2.70;;;1.97;;
16963;SDS011;8598;50.508;10.436;2023-04-15T13:44:48;2.00;;;1.57;;
16963;SDS011;8598;50.508;10.436;2023-04-15T13:47:15;1.50;;;1.40;;
16963;SDS011;8598;50.508;10.436;2023-04-15T13:49:42;1.20;;;1.10;;
16963;SDS011;8598;50.508;10.436;2023-04-15T13:52:08;1.20;;;1.10;;
16963;SDS011;8598;50.508;10.436;2023-04-15T13:54:37;1.30;;;1.20;;
16963;SDS011;8598;50.508;10.436;2023-04-15T13:57:04;1.20;;;1.10;;
16963;SDS011;8598;50.508;10.436;2023-04-15T13:59:31;1.27;;;1.17;;
16963;SDS011;8598;50.508;10.436;2023-04-15T14:01:58;1.30;;;1.17;;
16963;SDS011;8598;50.508;10.436;2023-04-15T14:04:25;2.60;;;1.10;;
16963;SDS011;8598;50.508;10.436;2023-04-15T14:06:51;1.77;;;1.50;;
16963;SDS011;8598;50.508;10.436;2023-04-15T14:09:18;1.60;;;1.50;;
16963;SDS011;8598;50.508;10.436;2023-04-15T14:11:47;2.00;;;1.60;;
16963;SDS011;8598;50.508;10.436;2023-04-15T14:14:14;2.00;;;1.40;;
16963;SDS011;8598;50.508;10.436;2023-04-15T14:16:40;1.77;;;1.63;;
16963;SDS011;8598;50.508;10.436;2023-04-15T14:19:07;2.73;;;1.60;;
16963;SDS011;8598;50.508;10.436;2023-04-15T14:21:34;1.50;;;1.40;;
16963;SDS011;8598;50.508;10.436;2023-04-15T14:24:00;1.37;;;1.27;;
16963;SDS011;8598;50.508;10.436;2023-04-15T14:26:27;1.07;;;1.07;;
16963;SDS011;8598;50.508;10.436;2023-04-15T14:28:55;1.50;;;1.40;;
16963;SDS011;8598;50.508;10.436;2023-04-15T14:31:22;1.50;;;1.40;;
16963;SDS011;8598;50.508;10.436;2023-04-15T14:33:48;1.43;;;1.30;;
16963;SDS011;8598;50.508;10.436;2023-04-15T14:36:15;1.70;;;1.50;;
16963;SDS011;8598;50.508;10.436;2023-04-15T14:38:42;1.83;;;1.43;;
16963;SDS011;8598;50.508;10.436;2023-04-15T14:41:08;1.97;;;1.73;;
16963;SDS011;8598;50.508;10.436;2023-04-15T14:43:36;1.77;;;1.67;;
16963;SDS011;8598;50.508;10.436;2023-04-15T14:46:04;1.30;;;1.20;;
16963;SDS011;8598;50.508;10.436;2023-04-15T14:48:32;1.70;;;1.50;;
16963;SDS011;8598;50.508;10.436;2023-04-15T14:50:58;1.30;;;1.20;;